createdAt,value
2018-07-12T00:01:30.440Z,12.48
2018-07-12T00:04:05.460Z,12.47
2018-07-12T00:06:33.854Z,12.36
2018-07-12T00:09:02.008Z,12.27
2018-07-12T00:11:30.363Z,12.26
2018-07-12T00:13:58.485Z,12.31
2018-07-12T00:16:26.850Z,12.32
2018-07-12T00:18:55.425Z,12.33
2018-07-12T00:21:23.861Z,12.31
2018-07-12T00:23:52.052Z,12.19
2018-07-12T00:26:20.062Z,12.21
2018-07-12T00:28:48.376Z,12.06
2018-07-12T00:31:16.876Z,11.86
2018-07-12T00:33:45.217Z,11.79
2018-07-12T00:36:13.633Z,11.88
2018-07-12T00:38:41.967Z,11.92
2018-07-12T00:41:10.611Z,11.93
2018-07-12T00:43:39.009Z,11.92
2018-07-12T00:46:07.520Z,11.91
2018-07-12T00:48:35.989Z,11.99
2018-07-12T00:51:04.303Z,11.95
2018-07-12T00:53:33.012Z,11.86
2018-07-12T00:56:01.303Z,11.64
2018-07-12T00:58:29.626Z,11.52
2018-07-12T01:00:57.736Z,11.58
2018-07-12T01:03:26.188Z,11.73
2018-07-12T01:05:54.659Z,11.87
2018-07-12T01:08:23.110Z,11.93
2018-07-12T01:10:51.304Z,11.92
2018-07-12T01:13:19.805Z,11.77
2018-07-12T01:15:48.207Z,11.59
2018-07-12T01:18:16.711Z,11.47
2018-07-12T01:20:45.204Z,11.44
2018-07-12T01:23:13.473Z,11.48
2018-07-12T01:25:41.755Z,11.44
2018-07-12T01:28:09.823Z,11.35
2018-07-12T01:30:38.187Z,11.33
2018-07-12T01:33:08.419Z,11.31
2018-07-12T01:35:37.214Z,11.18
2018-07-12T01:38:05.831Z,11.16
2018-07-12T01:40:34.231Z,11.22
2018-07-12T01:43:02.450Z,11.20
2018-07-12T01:45:30.836Z,11.25
2018-07-12T01:47:59.279Z,11.40
2018-07-12T01:50:27.540Z,11.46
2018-07-12T01:52:55.927Z,11.51
2018-07-12T01:55:24.400Z,11.45
2018-07-12T01:57:58.017Z,11.52
2018-07-12T02:00:26.404Z,11.64
2018-07-12T02:02:54.907Z,11.68
2018-07-12T02:05:24.435Z,11.75
2018-07-12T02:07:52.941Z,11.78
2018-07-12T02:10:21.430Z,11.78
2018-07-12T02:12:49.713Z,11.77
2018-07-12T02:15:18.615Z,11.75
2018-07-12T02:17:47.007Z,11.72
2018-07-12T02:20:15.439Z,11.70
2018-07-12T02:22:44.015Z,11.66
2018-07-12T02:25:12.155Z,11.70
2018-07-12T02:27:40.512Z,11.73
2018-07-12T02:30:08.780Z,11.72
2018-07-12T02:32:37.161Z,11.52
2018-07-12T02:35:05.606Z,11.38
2018-07-12T02:37:34.046Z,11.36
2018-07-12T02:40:02.141Z,11.39
2018-07-12T02:42:30.236Z,11.42
2018-07-12T02:44:58.387Z,11.44
2018-07-12T02:47:26.544Z,11.45
2018-07-12T02:49:54.547Z,11.44
2018-07-12T02:52:22.655Z,11.32
2018-07-12T02:54:50.743Z,11.25
2018-07-12T02:57:18.765Z,11.32
2018-07-12T02:59:46.807Z,11.33
2018-07-12T03:02:14.840Z,11.30
2018-07-12T03:04:42.928Z,11.25
2018-07-12T03:07:11.180Z,11.23
2018-07-12T03:09:39.653Z,11.24
2018-07-12T03:12:07.816Z,11.23
2018-07-12T03:14:36.044Z,11.20
2018-07-12T03:17:04.439Z,11.23
2018-07-12T03:19:32.475Z,11.07
2018-07-12T03:22:00.551Z,10.82
2018-07-12T03:24:28.694Z,10.74
2018-07-12T03:26:56.662Z,10.76
2018-07-12T03:29:24.821Z,10.75
2018-07-12T03:31:52.967Z,10.78
2018-07-12T03:34:21.078Z,10.78
2018-07-12T03:36:49.300Z,10.75
2018-07-12T03:39:17.411Z,10.75
2018-07-12T03:41:45.524Z,10.80
2018-07-12T03:44:13.611Z,10.73
2018-07-12T03:46:41.750Z,10.75
2018-07-12T03:49:09.967Z,10.81
2018-07-12T03:51:38.393Z,10.80
2018-07-12T03:54:06.561Z,10.81
2018-07-12T03:56:34.908Z,10.81
2018-07-12T03:59:03.475Z,10.83
2018-07-12T04:01:31.966Z,10.92
2018-07-12T04:04:00.170Z,10.99
2018-07-12T04:06:28.611Z,10.88
2018-07-12T04:08:56.942Z,10.82
2018-07-12T04:11:25.160Z,10.85
2018-07-12T04:13:53.303Z,10.94
2018-07-12T04:16:21.872Z,10.95
2018-07-12T04:18:49.939Z,10.84
2018-07-12T04:21:17.965Z,10.79
2018-07-12T04:23:46.052Z,10.82
2018-07-12T04:26:14.316Z,11.00
2018-07-12T04:28:42.521Z,11.10
2018-07-12T04:31:21.057Z,11.17
2018-07-12T04:33:49.430Z,11.26
2018-07-12T04:36:17.627Z,11.31
2018-07-12T04:38:45.644Z,11.43
2018-07-12T04:41:13.923Z,11.51
2018-07-12T04:43:42.350Z,11.66
2018-07-12T04:46:10.407Z,11.87
2018-07-12T04:48:38.580Z,12.26
2018-07-12T04:51:13.226Z,12.68
2018-07-12T04:53:41.383Z,13.12
2018-07-12T04:56:09.459Z,13.44
2018-07-12T04:58:37.610Z,13.79
2018-07-12T05:01:16.586Z,14.15
2018-07-12T05:03:44.547Z,14.53
2018-07-12T05:06:12.676Z,14.63
2018-07-12T05:08:46.227Z,15.01
2018-07-12T05:11:14.328Z,15.26
2018-07-12T05:13:42.287Z,15.44
2018-07-12T05:16:10.424Z,15.52
2018-07-12T05:18:38.570Z,15.77
2018-07-12T05:21:06.704Z,16.04
2018-07-12T05:23:34.867Z,16.24
2018-07-12T05:26:10.352Z,16.55
2018-07-12T05:28:38.915Z,16.90
2018-07-12T05:31:07.371Z,17.51
2018-07-12T05:33:35.877Z,18.34
2018-07-12T05:37:10.827Z,19.18
2018-07-12T05:39:41.463Z,21.32
2018-07-12T05:42:12.395Z,22.92
2018-07-12T05:44:43.364Z,23.37
2018-07-12T05:47:14.407Z,23.05
2018-07-12T05:52:46.598Z,23.79
2018-07-12T05:55:17.459Z,22.34
2018-07-12T05:57:55.473Z,21.54
2018-07-12T06:00:26.468Z,22.14
2018-07-12T06:02:57.177Z,22.80
2018-07-12T06:05:28.159Z,23.80
2018-07-12T06:07:58.975Z,24.11
2018-07-12T06:10:30.029Z,25.25
2018-07-12T06:13:00.803Z,24.71
2018-07-12T06:15:31.804Z,25.80
2018-07-12T06:18:02.728Z,25.31
2018-07-12T06:20:33.548Z,27.38
2018-07-12T06:23:18.562Z,26.91
2018-07-12T06:25:49.570Z,27.00
2018-07-12T06:28:20.582Z,28.45
2018-07-12T06:30:51.601Z,28.88
2018-07-12T06:33:22.588Z,29.46
2018-07-12T06:35:53.617Z,29.78
2018-07-12T06:38:24.668Z,28.99
2018-07-12T06:40:55.610Z,29.80
2018-07-12T06:43:26.652Z,30.14
2018-07-12T06:45:57.649Z,28.78
2018-07-12T06:48:28.701Z,29.17
2018-07-12T06:50:59.736Z,30.13
2018-07-12T07:02:39.036Z,30.56
2018-07-12T07:05:10.033Z,28.99
2018-07-12T07:07:41.063Z,29.93
2018-07-12T07:10:12.476Z,28.51
2018-07-12T07:12:43.434Z,29.85
2018-07-12T07:15:14.538Z,30.54
2018-07-12T07:17:51.804Z,30.98
2018-07-12T07:20:22.923Z,31.45
2018-07-12T07:22:53.617Z,29.81
2018-07-12T07:25:24.543Z,28.42
2018-07-12T07:27:55.887Z,30.58
2018-07-12T07:30:26.550Z,30.26
2018-07-12T07:32:57.131Z,28.85
2018-07-12T07:35:28.475Z,29.07
2018-07-12T07:37:59.182Z,29.02
2018-07-12T07:40:30.119Z,27.63
2018-07-12T07:43:00.995Z,28.68
2018-07-12T07:45:31.959Z,30.79
2018-07-12T07:48:03.010Z,31.26
2018-07-12T07:50:33.948Z,30.66
2018-07-12T07:53:05.003Z,31.61
2018-07-12T07:55:35.990Z,32.10
2018-07-12T07:58:07.059Z,32.30
2018-07-12T08:00:37.168Z,32.30
2018-07-12T08:03:07.799Z,32.16
2018-07-12T08:05:39.019Z,30.90
2018-07-12T08:08:09.781Z,31.62
2018-07-12T08:10:41.118Z,32.08
2018-07-12T08:13:11.830Z,31.63
2018-07-12T08:15:42.778Z,31.09
2018-07-12T08:18:13.810Z,29.08
2018-07-12T08:20:44.778Z,30.88
2018-07-12T08:23:15.816Z,29.66
2018-07-12T08:25:46.854Z,29.58
2018-07-12T08:28:29.283Z,27.80
2018-07-12T08:31:00.387Z,29.79
2018-07-12T08:33:31.258Z,27.83
2018-07-12T08:36:02.224Z,27.88
2018-07-12T08:38:32.912Z,26.90
2018-07-12T08:41:04.254Z,29.02
2018-07-12T08:43:34.867Z,28.54
2018-07-12T08:46:05.986Z,28.40
2018-07-12T08:48:36.952Z,28.47
2018-07-12T08:51:07.831Z,30.70
2018-07-12T08:53:38.572Z,32.41
2018-07-12T08:56:09.604Z,32.73
2018-07-12T08:58:40.575Z,33.00
2018-07-12T09:01:11.617Z,32.57
2018-07-12T09:03:42.971Z,30.80
2018-07-12T09:06:13.914Z,32.02
2018-07-12T09:08:44.894Z,31.17
2018-07-12T09:11:15.678Z,30.29
2018-07-12T09:13:48.090Z,32.76
2018-07-12T09:16:19.130Z,33.54
2018-07-12T09:18:50.444Z,32.69
2018-07-12T09:21:21.452Z,29.76
2018-07-12T09:23:52.203Z,29.01
2018-07-12T09:26:23.467Z,28.18
2018-07-12T09:28:54.432Z,28.30
2018-07-12T09:31:25.483Z,28.70
2018-07-12T09:33:59.154Z,28.07
2018-07-12T09:36:30.223Z,29.56
2018-07-12T09:39:01.131Z,31.24
2018-07-12T09:41:32.135Z,31.16
2018-07-12T09:44:03.643Z,31.10
2018-07-12T09:46:34.844Z,31.38
2018-07-12T09:49:06.113Z,29.28
2018-07-12T09:51:37.056Z,28.37
2018-07-12T09:54:07.727Z,29.10
2018-07-12T09:56:54.706Z,30.93
2018-07-12T09:59:25.854Z,31.75
2018-07-12T10:02:02.139Z,31.61
2018-07-12T10:04:34.185Z,32.66
2018-07-12T10:07:10.177Z,30.91
2018-07-12T10:09:46.135Z,29.11
2018-07-12T10:12:22.184Z,28.72
2018-07-12T10:14:56.995Z,30.86
2018-07-12T10:17:33.176Z,32.06
2018-07-12T10:20:05.350Z,31.15
2018-07-12T10:22:36.028Z,32.27
2018-07-12T10:25:07.422Z,32.72
2018-07-12T10:27:38.053Z,30.91
2018-07-12T10:30:08.988Z,33.02
2018-07-12T10:32:40.024Z,33.43
2018-07-12T10:35:11.272Z,35.11
2018-07-12T10:37:41.989Z,34.59
2018-07-12T10:40:12.827Z,35.53
2018-07-12T10:42:43.534Z,35.03
2018-07-12T10:45:14.478Z,34.83
2018-07-12T10:47:45.011Z,34.57
2018-07-12T10:50:35.908Z,34.66
2018-07-12T10:53:06.877Z,35.68
2018-07-12T10:55:37.871Z,34.19
2018-07-12T10:58:08.926Z,34.38
2018-07-12T11:00:39.376Z,35.14
2018-07-12T11:03:38.249Z,35.65
2018-07-12T11:06:08.998Z,35.78
2018-07-12T11:08:39.503Z,35.65
2018-07-12T11:11:09.999Z,35.44
2018-07-12T11:13:50.871Z,34.86
2018-07-12T11:16:21.240Z,35.74
2018-07-12T11:18:51.804Z,34.32
2018-07-12T11:21:22.472Z,31.79
2018-07-12T11:23:52.966Z,32.49
2018-07-12T11:26:23.516Z,34.09
2018-07-12T11:28:53.999Z,34.80
2018-07-12T11:31:24.408Z,35.63
2018-07-12T11:33:55.084Z,34.11
2018-07-12T11:36:25.702Z,35.19
2018-07-12T11:39:02.285Z,35.64
2018-07-12T11:41:33.098Z,36.29
2018-07-12T11:44:09.408Z,36.62
2018-07-12T11:46:45.841Z,35.53
2018-07-12T11:49:16.841Z,37.36
2018-07-12T11:51:49.789Z,35.86
2018-07-12T11:54:20.713Z,34.87
2018-07-12T11:56:51.490Z,35.22
2018-07-12T11:59:22.456Z,36.03
2018-07-12T12:01:56.849Z,37.09
2018-07-12T12:04:28.514Z,36.45
2018-07-12T12:07:00.979Z,35.99
2018-07-12T12:09:32.248Z,36.84
2018-07-12T12:12:03.220Z,37.57
2018-07-12T12:14:33.943Z,37.06
2018-07-12T12:17:04.487Z,37.67
2018-07-12T12:19:35.922Z,37.48
2018-07-12T12:22:12.378Z,38.01
2018-07-12T12:24:45.313Z,37.50
2018-07-12T12:27:15.938Z,37.68
2018-07-12T12:29:46.592Z,37.48
2018-07-12T12:32:17.443Z,35.90
2018-07-12T12:34:48.518Z,35.78
2018-07-12T12:37:19.375Z,36.80
2018-07-12T12:39:50.393Z,37.68
2018-07-12T12:42:21.486Z,38.25
2018-07-12T12:44:52.362Z,38.17
2018-07-12T12:47:23.420Z,38.12
2018-07-12T12:49:54.501Z,38.81
2018-07-12T12:52:25.469Z,38.51
2018-07-12T12:54:56.095Z,37.90
2018-07-12T12:57:27.145Z,37.51
2018-07-12T13:03:03.822Z,37.36
2018-07-12T13:05:34.672Z,38.16
2018-07-12T13:08:05.593Z,37.57
2018-07-12T13:10:36.235Z,38.36
2018-07-12T13:13:08.091Z,39.39
2018-07-12T13:15:39.036Z,39.36
2018-07-12T13:18:09.791Z,39.52
2018-07-12T13:20:40.740Z,39.14
2018-07-12T13:23:23.717Z,39.39
2018-07-12T13:25:54.644Z,35.98
2018-07-12T13:28:25.612Z,38.21
2018-07-12T13:30:56.645Z,37.97
2018-07-12T13:33:27.650Z,40.02
2018-07-12T13:38:58.897Z,34.26
2018-07-12T13:41:29.896Z,36.35
2018-07-12T13:44:16.907Z,38.94
2018-07-12T13:46:48.957Z,39.11
2018-07-12T13:49:19.892Z,37.72
2018-07-12T13:51:53.801Z,39.42
2018-07-12T13:54:24.745Z,37.91
2018-07-12T13:56:55.761Z,39.33
2018-07-12T13:59:26.777Z,41.02
2018-07-12T14:01:57.794Z,40.83
2018-07-12T14:04:28.521Z,42.77
2018-07-12T14:07:00.013Z,41.79
2018-07-12T14:09:30.842Z,42.83
2018-07-12T14:12:01.571Z,43.40
2018-07-12T14:14:32.467Z,42.62
2018-07-12T14:17:03.099Z,41.79
2018-07-12T14:19:34.051Z,42.22
2018-07-12T14:25:23.571Z,41.11
2018-07-12T14:27:54.606Z,40.68
2018-07-12T14:30:25.595Z,40.77
2018-07-12T14:32:56.933Z,41.97
2018-07-12T14:35:27.564Z,43.29
2018-07-12T14:38:02.131Z,42.38
2018-07-12T14:40:32.647Z,38.53
2018-07-12T14:43:03.975Z,39.80
2018-07-12T14:45:34.179Z,38.78
2018-07-12T14:48:04.657Z,37.14
2018-07-12T14:50:35.303Z,37.04
2018-07-12T14:53:06.491Z,36.60
2018-07-12T14:55:37.660Z,35.86
2018-07-12T14:58:09.036Z,40.31
2018-07-12T15:00:39.728Z,40.40
2018-07-12T15:03:10.631Z,39.75
2018-07-12T15:05:41.387Z,36.87
2018-07-12T15:08:12.332Z,37.32
2018-07-12T15:10:43.246Z,36.81
2018-07-12T15:13:14.146Z,36.12
2018-07-12T15:15:45.095Z,36.93
2018-07-12T15:18:16.168Z,37.04
2018-07-12T15:20:46.837Z,36.30
2018-07-12T15:23:30.290Z,38.34
2018-07-12T15:26:01.303Z,37.46
2018-07-12T15:28:31.931Z,37.34
2018-07-12T15:31:02.872Z,37.58
2018-07-12T15:33:34.239Z,38.14
2018-07-12T15:36:05.391Z,36.65
2018-07-12T15:38:36.182Z,35.97
2018-07-12T15:41:06.596Z,38.11
2018-07-12T15:43:37.013Z,36.27
2018-07-12T15:46:07.546Z,37.89
2018-07-12T15:48:37.948Z,36.91
2018-07-12T15:51:11.343Z,36.94
2018-07-12T15:53:41.837Z,39.17
2018-07-12T15:56:12.384Z,40.03
2018-07-12T15:58:42.864Z,41.88
2018-07-12T16:01:13.363Z,41.68
2018-07-12T16:03:43.876Z,39.48
2018-07-12T16:06:14.241Z,41.38
2018-07-12T16:08:44.645Z,41.25
2018-07-12T16:11:15.107Z,40.24
2018-07-12T16:13:45.606Z,40.85
2018-07-12T16:16:16.457Z,41.10
2018-07-12T16:18:46.919Z,42.19
2018-07-12T16:21:17.692Z,42.70
2018-07-12T16:23:47.747Z,42.01
2018-07-12T16:26:18.488Z,42.67
2018-07-12T16:28:48.824Z,39.54
2018-07-12T16:31:19.235Z,39.47
2018-07-12T16:33:49.760Z,37.04
2018-07-12T16:36:20.278Z,34.95
2018-07-12T16:38:50.716Z,34.62
2018-07-12T16:41:21.255Z,34.27
2018-07-12T16:43:51.620Z,35.26
2018-07-12T16:46:22.412Z,35.12
2018-07-12T16:48:52.848Z,32.14
2018-07-12T16:51:23.478Z,31.79
2018-07-12T16:53:54.210Z,30.58
2018-07-12T16:56:25.622Z,30.51
2018-07-12T16:58:56.732Z,30.22
2018-07-12T17:01:28.911Z,29.62
2018-07-12T17:03:59.851Z,29.65
2018-07-12T17:06:31.328Z,29.53
2018-07-12T17:09:01.924Z,27.96
2018-07-12T17:11:33.693Z,27.75
2018-07-12T17:14:04.417Z,27.42
2018-07-12T17:16:35.343Z,27.26
2018-07-12T17:19:06.741Z,27.37
2018-07-12T17:21:37.733Z,27.19
2018-07-12T17:24:10.719Z,28.49
2018-07-12T17:26:41.756Z,29.45
2018-07-12T17:29:12.493Z,28.72
2018-07-12T17:31:43.781Z,29.46
2018-07-12T17:34:18.422Z,28.93
2018-07-12T17:36:49.485Z,27.48
2018-07-12T17:39:21.346Z,27.03
2018-07-12T17:41:52.020Z,27.07
2018-07-12T17:44:22.839Z,26.83
2018-07-12T17:46:53.384Z,26.35
2018-07-12T17:49:23.882Z,25.99
2018-07-12T17:51:54.553Z,26.07
2018-07-12T17:54:24.917Z,25.90
2018-07-12T17:56:55.523Z,25.85
2018-07-12T17:59:27.272Z,25.81
2018-07-12T18:01:58.310Z,25.63
2018-07-12T18:04:28.649Z,25.38
2018-07-12T18:06:59.135Z,25.25
2018-07-12T18:09:29.773Z,25.20
2018-07-12T18:12:00.399Z,24.93
2018-07-12T18:14:30.854Z,24.83
2018-07-12T18:17:01.355Z,24.83
2018-07-12T18:19:31.795Z,24.77
2018-07-12T18:22:02.371Z,24.88
2018-07-12T18:24:33.778Z,24.76
2018-07-12T18:27:03.788Z,24.55
2018-07-12T18:29:40.816Z,24.52
2018-07-12T18:32:11.770Z,24.37
2018-07-12T18:34:44.189Z,24.27
2018-07-12T18:37:14.870Z,24.15
2018-07-12T18:39:45.489Z,24.15
2018-07-12T18:42:16.451Z,24.08
2018-07-12T18:44:46.807Z,24.01
2018-07-12T18:47:17.445Z,23.98
2018-07-12T18:49:49.554Z,23.93
2018-07-12T18:52:20.042Z,23.94
2018-07-12T18:54:54.147Z,23.91
2018-07-12T18:57:24.844Z,23.76
2018-07-12T18:59:55.526Z,23.63
2018-07-12T19:02:26.539Z,23.45
2018-07-12T19:04:59.765Z,23.27
2018-07-12T19:07:30.491Z,23.13
2018-07-12T19:10:01.000Z,22.96
2018-07-12T19:12:31.900Z,22.80
2018-07-12T19:15:07.225Z,22.65
2018-07-12T19:17:38.823Z,22.48
2018-07-12T19:20:09.285Z,22.39
2018-07-12T19:22:40.182Z,22.22
2018-07-12T19:25:10.923Z,22.11
2018-07-12T19:27:41.519Z,21.93
2018-07-12T19:30:19.705Z,21.81
2018-07-12T19:32:50.449Z,21.67
2018-07-12T19:35:21.046Z,21.50
2018-07-12T19:37:51.833Z,21.40
2018-07-12T19:40:22.511Z,21.37
2018-07-12T19:42:53.619Z,21.27
2018-07-12T19:45:24.299Z,21.25
2018-07-12T19:47:55.067Z,21.19
2018-07-12T19:50:25.559Z,21.11
2018-07-12T19:52:57.242Z,21.01
2018-07-12T19:55:34.818Z,20.93
2018-07-12T19:58:09.015Z,20.87
2018-07-12T20:00:43.776Z,20.77
2018-07-12T20:03:14.598Z,20.68
2018-07-12T20:05:48.365Z,20.58
2018-07-12T20:08:19.805Z,20.52
2018-07-12T20:10:50.711Z,20.46
2018-07-12T20:13:22.262Z,20.40
2018-07-12T20:15:53.044Z,20.31
2018-07-12T20:18:24.200Z,20.19
2018-07-12T20:20:54.696Z,20.08
2018-07-12T20:23:27.199Z,20.01
2018-07-12T20:25:57.680Z,19.95
2018-07-12T20:28:28.209Z,19.92
2018-07-12T20:30:59.102Z,19.87
2018-07-12T20:33:29.663Z,19.87
2018-07-12T20:36:00.187Z,19.87
2018-07-12T20:38:30.841Z,19.82
2018-07-12T20:41:01.302Z,19.81
2018-07-12T20:43:31.995Z,19.84
2018-07-12T20:46:02.335Z,19.79
2018-07-12T20:48:32.966Z,19.72
2018-07-12T20:51:03.507Z,19.74
2018-07-12T20:53:34.239Z,19.83
2018-07-12T20:56:05.728Z,19.81
2018-07-12T20:58:36.370Z,19.80
2018-07-12T21:01:06.907Z,19.77
2018-07-12T21:03:37.748Z,19.67
2018-07-12T21:06:08.355Z,19.55
2018-07-12T21:08:39.020Z,19.30
2018-07-12T21:11:09.428Z,19.01
2018-07-12T21:13:39.751Z,18.79
2018-07-12T21:16:12.752Z,18.67
2018-07-12T21:18:43.196Z,18.57
2018-07-12T21:21:13.916Z,18.66
2018-07-12T21:23:44.530Z,18.75
2018-07-12T21:26:15.055Z,18.69
2018-07-12T21:28:45.613Z,18.63
2018-07-12T21:31:16.115Z,18.56
2018-07-12T21:33:46.744Z,18.51
2018-07-12T21:36:17.032Z,18.43
2018-07-12T21:38:49.388Z,18.34
2018-07-12T21:41:21.351Z,18.24
2018-07-12T21:43:51.955Z,18.18
2018-07-12T21:46:22.435Z,18.17
2018-07-12T21:48:52.814Z,18.12
2018-07-12T21:51:23.418Z,18.09
2018-07-12T21:53:53.991Z,18.00
2018-07-12T21:56:24.790Z,17.93
2018-07-12T21:58:55.248Z,17.84
2018-07-12T22:01:25.620Z,17.77
2018-07-12T22:03:56.274Z,17.73
2018-07-12T22:08:36.145Z,17.66
2018-07-12T22:11:07.286Z,17.46
2018-07-12T22:13:38.428Z,17.41
2018-07-12T22:16:09.025Z,17.39
2018-07-12T22:18:40.763Z,17.33
2018-07-12T22:21:11.739Z,17.26
2018-07-12T22:23:42.049Z,17.15
2018-07-12T22:26:12.431Z,17.12
2018-07-12T22:28:42.958Z,17.06
2018-07-12T22:31:13.643Z,16.98
2018-07-12T22:33:44.004Z,16.94
2018-07-12T22:36:14.377Z,16.86
2018-07-12T22:38:44.876Z,16.79
2018-07-12T22:41:15.452Z,16.76
2018-07-12T22:43:45.867Z,16.71
2018-07-12T22:46:16.484Z,16.67
2018-07-12T22:48:46.888Z,16.54
2018-07-12T22:51:17.396Z,16.50
2018-07-12T22:53:47.860Z,16.46
2018-07-12T22:56:18.379Z,16.39
2018-07-12T22:58:48.815Z,16.34
2018-07-12T23:01:19.346Z,16.29
2018-07-12T23:03:49.986Z,16.26
2018-07-12T23:06:20.488Z,16.19
2018-07-12T23:08:51.375Z,16.11
2018-07-12T23:11:22.139Z,16.03
2018-07-12T23:13:52.581Z,15.99
2018-07-12T23:16:23.031Z,15.97
2018-07-12T23:18:53.762Z,15.97
2018-07-12T23:21:32.226Z,15.95
2018-07-12T23:24:03.661Z,16.03
2018-07-12T23:26:35.087Z,16.08
2018-07-12T23:29:05.713Z,16.09
2018-07-12T23:31:36.183Z,16.00
2018-07-12T23:34:06.551Z,15.99
2018-07-12T23:36:36.882Z,15.95
2018-07-12T23:39:09.654Z,15.90
2018-07-12T23:41:40.177Z,15.84
2018-07-12T23:44:10.765Z,15.80
2018-07-12T23:46:41.188Z,15.78
2018-07-12T23:49:15.314Z,15.78
2018-07-12T23:51:45.897Z,15.73
2018-07-12T23:54:16.470Z,15.71
2018-07-12T23:56:46.756Z,15.75
2018-07-12T23:59:17.489Z,15.68
